createdAt,value
2023-02-09T00:00:57.428Z,-3.41
2023-02-09T00:03:27.036Z,-3.51
2023-02-09T00:05:56.340Z,-3.60
2023-02-09T00:08:30.153Z,-3.57
2023-02-09T00:10:56.920Z,-3.56
2023-02-09T00:13:24.018Z,-3.57
2023-02-09T00:15:55.648Z,-3.55
2023-02-09T00:18:23.482Z,-3.61
2023-02-09T00:21:03.451Z,-3.67
2023-02-09T00:23:43.611Z,-3.76
2023-02-09T00:26:17.936Z,-3.82
2023-02-09T00:28:55.209Z,-3.77
2023-02-09T00:31:22.133Z,-3.89
2023-02-09T00:33:54.532Z,-3.76
2023-02-09T00:36:21.466Z,-3.72
2023-02-09T00:39:01.592Z,-3.76
2023-02-09T00:41:53.183Z,-3.78
2023-02-09T00:44:22.637Z,-3.73
2023-02-09T00:46:51.748Z,-3.72
2023-02-09T00:49:20.945Z,-3.84
2023-02-09T00:51:52.592Z,-3.82
2023-02-09T00:57:15.863Z,-3.78
2023-02-09T00:59:42.710Z,-4.02
2023-02-09T01:02:09.461Z,-3.91
2023-02-09T01:04:44.342Z,-3.79
2023-02-09T01:07:13.304Z,-3.72
2023-02-09T01:09:40.006Z,-3.75
2023-02-09T01:12:06.858Z,-3.80
2023-02-09T01:14:33.593Z,-4.13
2023-02-09T01:17:00.435Z,-4.11
2023-02-09T01:19:33.162Z,-4.14
2023-02-09T01:21:59.668Z,-4.25
2023-02-09T01:24:26.290Z,-4.27
2023-02-09T01:26:53.021Z,-4.23
2023-02-09T01:29:20.132Z,-4.26
2023-02-09T01:31:49.254Z,-4.07
2023-02-09T01:34:17.763Z,-4.42
2023-02-09T01:36:45.984Z,-4.21
2023-02-09T01:39:13.529Z,-4.31
2023-02-09T01:41:40.265Z,-4.46
2023-02-09T01:44:27.191Z,-4.24
2023-02-09T01:46:56.662Z,-4.26
2023-02-09T01:49:30.061Z,-4.46
2023-02-09T01:52:12.063Z,-4.33
2023-02-09T01:55:01.133Z,-4.28
2023-02-09T01:57:43.211Z,-4.54
2023-02-09T02:00:14.060Z,-4.52
2023-02-09T02:02:42.422Z,-4.37
2023-02-09T02:05:09.385Z,-4.39
2023-02-09T02:07:43.327Z,-4.27
2023-02-09T02:10:12.616Z,-4.46
2023-02-09T02:12:45.403Z,-4.48
2023-02-09T02:15:12.348Z,-4.65
2023-02-09T02:17:52.172Z,-4.64
2023-02-09T02:20:28.160Z,-4.50
2023-02-09T02:22:56.854Z,-4.62
2023-02-09T02:25:44.745Z,-4.63
2023-02-09T02:28:27.395Z,-4.69
2023-02-09T02:31:00.234Z,-4.72
2023-02-09T02:33:30.188Z,-4.77
2023-02-09T02:35:56.848Z,-4.90
2023-02-09T02:38:29.345Z,-4.91
2023-02-09T02:41:19.904Z,-5.06
2023-02-09T02:43:56.884Z,-5.05
2023-02-09T02:46:33.073Z,-5.16
2023-02-09T02:49:08.200Z,-4.85
2023-02-09T02:51:45.004Z,-5.05
2023-02-09T02:54:44.288Z,-4.88
2023-02-09T02:57:15.274Z,-4.97
2023-02-09T02:59:50.971Z,-4.91
2023-02-09T03:02:26.204Z,-5.22
2023-02-09T03:04:57.416Z,-4.99
2023-02-09T03:07:27.306Z,-4.85
2023-02-09T03:09:58.392Z,-4.81
2023-02-09T03:13:00.961Z,-4.85
2023-02-09T03:16:12.964Z,-5.19
2023-02-09T03:19:06.086Z,-5.22
2023-02-09T03:21:45.676Z,-5.29
2023-02-09T03:24:24.594Z,-5.27
2023-02-09T03:27:16.640Z,-5.46
2023-02-09T03:29:47.815Z,-5.33
2023-02-09T03:32:21.505Z,-5.21
2023-02-09T03:37:55.094Z,-5.62
2023-02-09T03:40:38.599Z,-5.28
2023-02-09T03:49:59.832Z,-5.49
2023-02-09T03:52:29.204Z,-5.32
2023-02-09T03:55:25.090Z,-5.56
2023-02-09T03:57:57.147Z,-5.38
2023-02-09T04:00:26.724Z,-5.43
2023-02-09T04:02:53.837Z,-5.63
2023-02-09T04:08:31.899Z,-5.50
2023-02-09T04:11:08.009Z,-5.44
2023-02-09T04:13:40.299Z,-5.29
2023-02-09T04:22:21.879Z,-5.52
2023-02-09T04:27:47.382Z,-5.45
2023-02-09T04:33:03.358Z,-5.40
2023-02-09T04:48:47.288Z,-5.56
2023-02-09T04:51:15.007Z,-5.41
2023-02-09T04:53:47.751Z,-5.40
2023-02-09T05:11:57.598Z,-4.86
2023-02-09T05:14:24.221Z,-4.87
2023-02-09T05:20:19.323Z,-4.70
2023-02-09T05:25:34.342Z,-4.54
2023-02-09T05:28:01.109Z,-4.63
2023-02-09T05:36:42.953Z,-4.54
2023-02-09T05:45:19.840Z,-4.54
2023-02-09T05:48:07.196Z,-4.53
2023-02-09T05:50:46.034Z,-4.54
2023-02-09T05:55:47.898Z,-4.52
2023-02-09T05:58:17.843Z,-4.35
2023-02-09T06:12:17.025Z,-4.22
2023-02-09T06:34:33.234Z,-4.60
2023-02-09T06:37:03.218Z,-4.52
2023-02-09T06:48:01.530Z,-4.47
2023-02-09T06:56:03.268Z,-4.31
2023-02-09T06:58:29.868Z,-4.35
2023-02-09T07:01:03.180Z,-4.32
2023-02-09T07:03:33.231Z,-4.27
2023-02-09T07:09:31.561Z,-4.14
2023-02-09T07:11:59.936Z,-4.29
2023-02-09T07:27:06.602Z,-3.91
2023-02-09T07:56:51.057Z,-3.41
2023-02-09T07:59:31.332Z,-3.59
2023-02-09T08:05:05.571Z,-3.30
2023-02-09T08:07:32.198Z,-3.40
2023-02-09T08:17:23.069Z,-2.98
2023-02-09T08:20:16.836Z,-3.03
2023-02-09T08:22:46.640Z,-2.76
2023-02-09T08:25:24.362Z,-2.76
2023-02-09T08:44:17.301Z,-2.38
2023-02-09T08:46:48.059Z,-2.15
2023-02-09T08:49:14.757Z,-2.10
2023-02-09T08:51:42.168Z,-1.91
2023-02-09T08:54:08.856Z,-1.78
2023-02-09T08:56:37.370Z,-1.89
2023-02-09T08:59:23.553Z,-1.83
2023-02-09T09:01:57.908Z,-1.79
2023-02-09T09:04:33.763Z,-1.68
2023-02-09T09:07:15.401Z,-1.23
2023-02-09T09:09:42.143Z,-1.45
2023-02-09T09:12:18.354Z,-1.58
2023-02-09T09:14:48.002Z,-1.46
2023-02-09T09:17:14.583Z,-1.40
2023-02-09T09:19:41.121Z,-1.38
2023-02-09T09:22:07.650Z,-1.25
2023-02-09T09:24:44.045Z,-1.53
2023-02-09T09:27:10.906Z,-1.28
2023-02-09T09:29:40.131Z,-1.16
2023-02-09T09:32:30.295Z,-1.17
2023-02-09T09:44:50.357Z,-0.79
2023-02-09T09:47:26.546Z,-0.72
2023-02-09T09:49:53.313Z,-0.59
2023-02-09T09:52:25.243Z,-0.65
2023-02-09T09:55:00.810Z,-0.58
2023-02-09T09:57:55.678Z,-0.63
2023-02-09T10:07:47.168Z,-0.77
2023-02-09T10:10:36.696Z,-0.53
2023-02-09T10:13:07.682Z,-0.63
2023-02-09T10:15:40.497Z,-0.63
2023-02-09T10:18:13.176Z,-0.42
2023-02-09T10:20:59.454Z,-0.44
2023-02-09T10:23:28.218Z,-0.34
2023-02-09T10:25:58.034Z,-0.43
2023-02-09T10:28:44.434Z,-0.31
2023-02-09T10:31:17.788Z,-0.24
2023-02-09T10:33:45.465Z,-0.14
2023-02-09T10:36:29.094Z,-0.13
2023-02-09T10:39:12.924Z,0.14
2023-02-09T10:42:27.616Z,0.18
2023-02-09T10:44:35.059Z,0.22
2023-02-09T10:47:23.366Z,0.38
2023-02-09T10:50:10.238Z,0.54
2023-02-09T10:52:40.144Z,0.39
2023-02-09T10:55:30.276Z,0.03
2023-02-09T11:01:53.780Z,0.09
2023-02-09T11:04:29.191Z,0.37
2023-02-09T11:07:03.025Z,0.35
2023-02-09T11:09:38.099Z,0.40
2023-02-09T11:12:06.304Z,0.57
2023-02-09T11:14:33.872Z,0.43
2023-02-09T11:17:15.951Z,0.44
2023-02-09T11:20:02.434Z,0.48
2023-02-09T11:25:26.016Z,0.32
2023-02-09T11:27:53.795Z,0.37
2023-02-09T11:30:53.551Z,0.63
2023-02-09T11:33:41.938Z,0.46
2023-02-09T11:43:10.399Z,0.80
2023-02-09T11:45:46.437Z,1.04
2023-02-09T11:48:57.590Z,1.08
2023-02-09T11:52:03.379Z,1.13
2023-02-09T11:58:38.680Z,1.25
2023-02-09T12:32:48.524Z,1.29
2023-02-09T13:00:20.043Z,1.97
2023-02-09T13:03:03.386Z,1.89
2023-02-09T13:05:38.047Z,1.96
2023-02-09T13:08:30.504Z,1.93
2023-02-09T13:11:27.262Z,1.79
2023-02-09T13:14:19.270Z,1.85
2023-02-09T13:16:59.310Z,1.88
2023-02-09T13:19:47.463Z,2.10
2023-02-09T13:22:30.837Z,1.81
2023-02-09T13:25:40.498Z,1.84
2023-02-09T13:28:36.652Z,1.87
2023-02-09T13:31:16.320Z,1.73
2023-02-09T13:33:57.584Z,1.99
2023-02-09T13:36:35.932Z,1.88
2023-02-09T13:39:06.794Z,2.09
2023-02-09T13:41:38.426Z,2.15
2023-02-09T13:44:21.502Z,1.98
2023-02-09T13:46:58.550Z,1.74
2023-02-09T13:49:26.526Z,1.90
2023-02-09T13:52:09.166Z,1.81
2023-02-09T13:55:02.096Z,1.80
2023-02-09T13:57:31.208Z,1.71
2023-02-09T14:00:11.807Z,1.53
2023-02-09T14:02:39.233Z,1.28
2023-02-09T14:05:07.891Z,1.48
2023-02-09T14:07:38.673Z,1.68
2023-02-09T14:10:17.167Z,1.64
2023-02-09T14:16:53.003Z,1.59
2023-02-09T14:19:29.903Z,1.57
2023-02-09T14:21:56.649Z,1.75
2023-02-09T14:24:24.199Z,1.62
2023-02-09T14:27:00.919Z,1.48
2023-02-09T14:29:51.101Z,1.40
2023-02-09T14:32:31.994Z,1.40
2023-02-09T14:35:14.371Z,1.56
2023-02-09T14:37:41.506Z,1.57
2023-02-09T14:40:08.046Z,1.47
2023-02-09T14:42:50.274Z,1.56
2023-02-09T14:45:16.888Z,1.63
2023-02-09T14:47:44.284Z,1.73
2023-02-09T14:50:15.091Z,1.37
2023-02-09T14:52:47.125Z,1.59
2023-02-09T14:56:00.608Z,1.48
2023-02-09T14:58:39.409Z,1.31
2023-02-09T15:01:06.055Z,1.27
2023-02-09T15:03:32.746Z,1.23
2023-02-09T15:06:04.824Z,1.21
2023-02-09T15:09:30.389Z,1.10
2023-02-09T15:12:06.037Z,1.06
2023-02-09T15:15:00.295Z,1.02
2023-02-09T15:17:33.612Z,0.96
2023-02-09T15:20:02.462Z,0.97
2023-02-09T15:22:32.776Z,1.00
2023-02-09T15:24:59.422Z,0.93
2023-02-09T15:27:29.110Z,1.02
2023-02-09T15:29:58.997Z,0.79
2023-02-09T15:32:26.769Z,0.78
2023-02-09T15:35:11.426Z,0.75
2023-02-09T15:37:38.943Z,0.64
2023-02-09T15:40:18.030Z,0.52
2023-02-09T15:43:03.341Z,0.53
2023-02-09T15:45:48.400Z,0.48
2023-02-09T15:48:16.584Z,0.27
2023-02-09T15:50:53.403Z,0.25
2023-02-09T15:53:24.255Z,0.12
2023-02-09T15:55:53.184Z,0.07
2023-02-09T16:05:18.216Z,0.12
2023-02-09T16:07:44.949Z,0.02
2023-02-09T16:10:13.061Z,-0.06
2023-02-09T16:12:39.690Z,-0.13
2023-02-09T16:15:23.196Z,-0.14
2023-02-09T16:17:53.824Z,-0.12
2023-02-09T16:20:28.842Z,-0.06
2023-02-09T16:22:56.861Z,-0.14
2023-02-09T16:25:26.798Z,-0.06
2023-02-09T16:27:54.172Z,-0.21
2023-02-09T16:30:22.130Z,-0.19
2023-02-09T16:32:49.242Z,-0.22
2023-02-09T16:35:17.425Z,-0.32
2023-02-09T16:37:47.124Z,-0.32
2023-02-09T16:40:16.673Z,-0.31
2023-02-09T16:42:44.158Z,-0.25
2023-02-09T16:45:14.493Z,-0.19
2023-02-09T16:47:49.291Z,-0.12
2023-02-09T16:50:25.288Z,-0.22
2023-02-09T16:52:53.436Z,-0.28
2023-02-09T16:55:35.856Z,-0.17
2023-02-09T16:58:04.172Z,-0.20
2023-02-09T17:00:35.848Z,-0.26
2023-02-09T17:06:44.282Z,-0.20
2023-02-09T17:09:17.168Z,-0.25
2023-02-09T17:11:45.327Z,-0.32
2023-02-09T17:14:21.789Z,-0.27
2023-02-09T17:17:18.426Z,-0.28
2023-02-09T17:20:02.868Z,-0.33
2023-02-09T17:22:37.564Z,-0.31
2023-02-09T17:25:04.460Z,-0.40
2023-02-09T17:27:39.030Z,-0.44
2023-02-09T17:30:08.971Z,-0.39
2023-02-09T17:32:41.042Z,-0.40
2023-02-09T17:35:25.718Z,-0.46
2023-02-09T17:38:14.098Z,-0.40
2023-02-09T17:40:47.821Z,-0.46
2023-02-09T17:43:29.811Z,-0.43
2023-02-09T17:46:05.724Z,-0.29
2023-02-09T17:52:06.321Z,-0.34
2023-02-09T17:54:48.624Z,-0.51
2023-02-09T17:57:18.216Z,-0.67
2023-02-09T17:59:50.661Z,-0.60
2023-02-09T18:02:21.345Z,-0.61
2023-02-09T18:04:48.540Z,-0.93
2023-02-09T18:07:23.020Z,-0.95
2023-02-09T18:09:56.584Z,-0.75
2023-02-09T18:18:48.584Z,-0.78
2023-02-09T18:28:50.513Z,-0.75
2023-02-09T18:34:22.228Z,-0.77
2023-02-09T18:53:13.792Z,-0.97
2023-02-09T18:55:45.203Z,-0.97
2023-02-09T18:58:28.537Z,-0.91
2023-02-09T19:04:48.500Z,-0.85
2023-02-09T19:07:46.918Z,-0.90
2023-02-09T19:10:17.912Z,-0.93
2023-02-09T19:13:35.154Z,-0.91
2023-02-09T19:16:10.624Z,-1.05
2023-02-09T19:19:32.886Z,-0.92
2023-02-09T19:26:13.729Z,-1.11
2023-02-09T19:32:22.006Z,-1.06
2023-02-09T19:42:02.983Z,-1.43
2023-02-09T19:44:45.570Z,-1.39
2023-02-09T21:56:41.004Z,-1.57
2023-02-09T21:59:10.191Z,-1.49
2023-02-09T22:01:54.750Z,-1.31
2023-02-09T22:04:21.388Z,-1.23
2023-02-09T22:06:50.473Z,-1.24
2023-02-09T22:09:20.726Z,-1.23
2023-02-09T22:11:47.410Z,-1.05
2023-02-09T22:14:14.074Z,-1.13
2023-02-09T22:19:26.929Z,-1.04
2023-02-09T22:28:28.605Z,-0.89
2023-02-09T22:30:55.281Z,-0.76
2023-02-09T22:33:31.230Z,-0.79
2023-02-09T22:35:58.421Z,-0.80
2023-02-09T22:38:24.980Z,-0.79
2023-02-09T22:41:02.691Z,-0.88
2023-02-09T22:43:37.306Z,-0.84
2023-02-09T22:46:07.721Z,-0.84
2023-02-09T22:48:34.346Z,-0.67
2023-02-09T22:51:01.070Z,-0.69
2023-02-09T22:53:36.098Z,-0.59
2023-02-09T22:56:04.057Z,-0.53
2023-02-09T22:58:30.849Z,-0.47
2023-02-09T23:00:58.389Z,-0.40
2023-02-09T23:10:28.940Z,-0.31
2023-02-09T23:12:55.465Z,-0.41
2023-02-09T23:15:22.276Z,-0.37
2023-02-09T23:17:48.950Z,-0.49
2023-02-09T23:20:15.760Z,-0.38
2023-02-09T23:22:42.420Z,-0.39
2023-02-09T23:25:09.170Z,-0.30
2023-02-09T23:27:35.943Z,-0.26
2023-02-09T23:30:02.648Z,-0.16
2023-02-09T23:32:29.276Z,-0.29
2023-02-09T23:34:55.997Z,-0.30
2023-02-09T23:37:36.678Z,-0.22
2023-02-09T23:40:04.257Z,0.00
2023-02-09T23:42:37.029Z,-0.14
2023-02-09T23:45:06.546Z,-0.22
2023-02-09T23:47:38.433Z,-0.22
2023-02-09T23:50:05.096Z,-0.38
2023-02-09T23:52:31.885Z,-0.28
2023-02-09T23:57:43.073Z,-0.37
